createdAt,value
2018-04-29T00:00:22.497Z,12.98
2018-04-29T00:01:25.844Z,12.97
2018-04-29T00:02:29.215Z,12.97
2018-04-29T00:03:32.673Z,12.97
2018-04-29T00:04:36.114Z,12.98
2018-04-29T00:05:40.385Z,12.90
2018-04-29T00:06:43.864Z,12.89
2018-04-29T00:07:47.280Z,12.79
2018-04-29T00:08:51.447Z,12.84
2018-04-29T00:09:54.877Z,12.81
2018-04-29T00:10:58.247Z,12.79
2018-04-29T00:12:01.576Z,12.75
2018-04-29T00:13:04.976Z,12.75
2018-04-29T00:14:08.513Z,12.71
2018-04-29T00:15:11.884Z,12.68
2018-04-29T00:16:15.409Z,12.67
2018-04-29T00:17:18.815Z,12.59
2018-04-29T00:18:22.511Z,12.60
2018-04-29T00:19:25.882Z,12.55
2018-04-29T00:20:30.011Z,12.61
2018-04-29T00:21:33.444Z,12.61
2018-04-29T00:22:36.872Z,12.64
2018-04-29T00:23:40.311Z,12.65
2018-04-29T00:24:43.768Z,12.58
2018-04-29T00:25:47.184Z,12.63
2018-04-29T00:26:50.593Z,12.61
2018-04-29T00:27:53.926Z,12.57
2018-04-29T00:28:57.242Z,12.55
2018-04-29T00:30:00.638Z,12.46
2018-04-29T00:31:04.099Z,12.52
2018-04-29T00:32:07.492Z,12.53
2018-04-29T00:33:11.856Z,12.49
2018-04-29T00:34:16.075Z,12.37
2018-04-29T00:35:19.496Z,12.33
2018-04-29T00:36:22.911Z,12.39
2018-04-29T00:37:26.319Z,12.38
2018-04-29T00:38:29.763Z,12.38
2018-04-29T00:39:33.159Z,12.36
2018-04-29T00:40:36.622Z,12.37
2018-04-29T00:41:40.172Z,12.35
2018-04-29T00:42:43.697Z,12.33
2018-04-29T00:43:47.142Z,12.32
2018-04-29T00:44:51.491Z,12.32
2018-04-29T00:45:54.972Z,12.26
2018-04-29T00:46:58.337Z,12.25
2018-04-29T00:48:01.959Z,12.27
2018-04-29T00:49:05.350Z,12.27
2018-04-29T00:50:08.996Z,12.23
2018-04-29T00:51:13.615Z,12.28
2018-04-29T00:52:17.734Z,12.26
2018-04-29T00:53:21.250Z,12.19
2018-04-29T00:54:24.691Z,12.22
2018-04-29T00:55:42.609Z,12.25
2018-04-29T00:56:46.073Z,12.26
2018-04-29T00:57:49.647Z,12.28
2018-04-29T00:58:53.115Z,12.28
2018-04-29T00:59:56.531Z,12.23
2018-04-29T01:00:59.970Z,12.25
2018-04-29T01:02:03.425Z,12.21
2018-04-29T01:03:08.443Z,12.23
2018-04-29T01:04:11.824Z,12.27
2018-04-29T01:05:15.189Z,12.27
2018-04-29T01:06:18.526Z,12.26
2018-04-29T01:07:21.926Z,12.25
2018-04-29T01:08:26.015Z,12.23
2018-04-29T01:09:29.570Z,12.16
2018-04-29T01:10:32.965Z,12.07
2018-04-29T01:11:36.496Z,12.07
2018-04-29T01:12:39.884Z,12.11
2018-04-29T01:13:43.238Z,12.07
2018-04-29T01:14:47.371Z,12.09
2018-04-29T01:15:51.450Z,12.08
2018-04-29T01:16:55.553Z,12.06
2018-04-29T01:17:58.902Z,12.03
2018-04-29T01:19:02.247Z,12.03
2018-04-29T01:20:05.540Z,12.02
2018-04-29T01:21:08.853Z,12.00
2018-04-29T01:22:12.180Z,11.97
2018-04-29T01:23:16.349Z,11.94
2018-04-29T01:24:19.685Z,11.98
2018-04-29T01:25:23.010Z,11.97
2018-04-29T01:26:26.387Z,11.93
2018-04-29T01:27:29.792Z,11.96
2018-04-29T01:28:33.131Z,11.97
2018-04-29T01:29:36.513Z,11.93
2018-04-29T01:30:39.846Z,11.87
2018-04-29T01:31:43.189Z,11.86
2018-04-29T01:32:46.632Z,11.93
2018-04-29T01:33:50.176Z,12.00
2018-04-29T01:34:53.758Z,12.00
2018-04-29T01:35:57.279Z,11.98
2018-04-29T01:37:00.698Z,11.95
2018-04-29T01:38:04.274Z,11.93
2018-04-29T01:39:07.690Z,11.91
2018-04-29T01:40:11.075Z,11.90
2018-04-29T01:41:14.449Z,11.84
2018-04-29T01:42:17.935Z,11.84
2018-04-29T01:43:21.306Z,11.82
2018-04-29T01:44:24.709Z,11.80
2018-04-29T01:45:28.100Z,11.80
2018-04-29T01:46:31.453Z,11.77
2018-04-29T01:47:34.967Z,11.76
2018-04-29T01:48:38.374Z,11.74
2018-04-29T01:49:42.097Z,11.73
2018-04-29T01:50:45.833Z,11.73
2018-04-29T01:51:49.409Z,11.69
2018-04-29T01:52:52.789Z,11.70
2018-04-29T01:53:56.238Z,11.64
2018-04-29T01:54:59.673Z,11.68
2018-04-29T01:56:03.057Z,11.68
2018-04-29T01:57:06.731Z,11.64
2018-04-29T01:58:10.071Z,11.69
2018-04-29T01:59:13.400Z,11.71
2018-04-29T02:00:16.775Z,11.69
2018-04-29T02:01:20.138Z,11.68
2018-04-29T02:02:23.676Z,11.63
2018-04-29T02:03:27.445Z,11.66
2018-04-29T02:04:30.843Z,11.65
2018-04-29T02:05:34.321Z,11.63
2018-04-29T02:06:37.683Z,11.66
2018-04-29T02:07:41.081Z,11.59
2018-04-29T02:08:44.585Z,11.59
2018-04-29T02:09:48.038Z,11.54
2018-04-29T02:10:51.419Z,11.55
2018-04-29T02:11:55.010Z,11.48
2018-04-29T02:12:58.415Z,11.45
2018-04-29T02:14:01.992Z,11.50
2018-04-29T02:15:05.380Z,11.44
2018-04-29T02:16:08.885Z,11.44
2018-04-29T02:17:12.494Z,11.44
2018-04-29T02:18:16.181Z,11.37
2018-04-29T02:19:19.569Z,11.27
2018-04-29T02:20:22.991Z,11.27
2018-04-29T02:21:26.438Z,11.28
2018-04-29T02:22:30.026Z,11.34
2018-04-29T02:23:33.748Z,11.31
2018-04-29T02:24:37.186Z,11.24
2018-04-29T02:25:40.699Z,11.28
2018-04-29T02:26:44.167Z,11.28
2018-04-29T02:27:47.664Z,11.29
2018-04-29T02:28:51.111Z,11.27
2018-04-29T02:29:54.470Z,11.22
2018-04-29T02:30:57.814Z,11.22
2018-04-29T02:32:01.937Z,11.20
2018-04-29T02:33:05.512Z,11.17
2018-04-29T02:34:08.935Z,11.19
2018-04-29T02:35:12.478Z,11.16
2018-04-29T02:36:15.785Z,11.11
2018-04-29T02:37:19.134Z,11.12
2018-04-29T02:38:22.506Z,11.09
2018-04-29T02:39:25.898Z,11.09
2018-04-29T02:40:29.275Z,11.03
2018-04-29T02:41:32.828Z,11.07
2018-04-29T02:42:36.267Z,11.05
2018-04-29T02:43:39.670Z,11.08
2018-04-29T02:44:43.139Z,11.07
2018-04-29T02:45:46.548Z,11.00
2018-04-29T02:46:49.938Z,11.06
2018-04-29T02:47:53.490Z,11.01
2018-04-29T02:48:56.979Z,10.98
2018-04-29T02:50:00.459Z,10.97
2018-04-29T02:51:04.050Z,10.93
2018-04-29T02:52:08.224Z,10.94
2018-04-29T02:53:11.574Z,10.95
2018-04-29T02:54:15.700Z,10.94
2018-04-29T02:55:19.793Z,10.90
2018-04-29T02:56:23.912Z,10.88
2018-04-29T02:57:27.321Z,10.89
2018-04-29T02:58:30.697Z,10.85
2018-04-29T02:59:34.069Z,10.85
2018-04-29T03:00:37.683Z,10.86
2018-04-29T03:01:41.044Z,10.84
2018-04-29T03:02:44.374Z,10.73
2018-04-29T03:03:47.772Z,10.71
2018-04-29T03:04:51.171Z,10.74
2018-04-29T03:05:54.496Z,10.71
2018-04-29T03:06:57.909Z,10.75
2018-04-29T03:08:01.282Z,10.75
2018-04-29T03:09:05.532Z,10.75
2018-04-29T03:10:08.865Z,10.74
2018-04-29T03:11:12.187Z,10.69
2018-04-29T03:12:15.485Z,10.74
2018-04-29T03:13:18.999Z,10.77
2018-04-29T03:14:23.056Z,10.75
2018-04-29T03:15:26.404Z,10.72
2018-04-29T03:16:29.743Z,10.74
2018-04-29T03:17:33.076Z,10.72
2018-04-29T03:18:36.497Z,10.70
2018-04-29T03:19:39.876Z,10.71
2018-04-29T03:20:43.235Z,10.70
2018-04-29T03:21:46.694Z,10.73
2018-04-29T03:22:50.036Z,10.73
2018-04-29T03:23:53.490Z,10.71
2018-04-29T03:24:56.927Z,10.69
2018-04-29T03:26:00.267Z,10.63
2018-04-29T03:27:03.814Z,10.69
2018-04-29T03:28:07.176Z,10.65
2018-04-29T03:29:10.546Z,10.65
2018-04-29T03:30:13.980Z,10.64
2018-04-29T03:31:17.364Z,10.52
2018-04-29T03:32:20.747Z,10.66
2018-04-29T03:33:24.174Z,10.64
2018-04-29T03:34:27.527Z,10.57
2018-04-29T03:35:30.937Z,10.59
2018-04-29T03:36:34.248Z,10.61
2018-04-29T03:37:37.584Z,10.66
2018-04-29T03:38:41.067Z,10.72
2018-04-29T03:39:44.497Z,10.69
2018-04-29T03:40:47.942Z,10.66
2018-04-29T03:41:51.260Z,10.63
2018-04-29T03:42:54.697Z,10.60
2018-04-29T03:43:58.315Z,10.65
2018-04-29T03:45:01.655Z,10.64
2018-04-29T03:46:05.169Z,10.58
2018-04-29T03:47:08.507Z,10.61
2018-04-29T03:48:11.868Z,10.57
2018-04-29T03:49:15.182Z,10.56
2018-04-29T03:50:18.545Z,10.60
2018-04-29T03:51:22.790Z,10.52
2018-04-29T03:52:26.133Z,10.55
2018-04-29T03:53:29.498Z,10.49
2018-04-29T03:54:32.857Z,10.50
2018-04-29T03:55:36.183Z,10.42
2018-04-29T03:56:40.420Z,10.41
2018-04-29T03:58:01.477Z,10.44
2018-04-29T03:59:22.531Z,10.43
2018-04-29T04:00:52.436Z,10.48
2018-04-29T04:02:13.529Z,10.48
2018-04-29T04:03:35.223Z,10.53
2018-04-29T04:04:38.576Z,10.52
2018-04-29T04:05:42.001Z,10.52
2018-04-29T04:06:45.446Z,10.50
2018-04-29T04:07:48.869Z,10.56
2018-04-29T04:08:52.211Z,10.59
2018-04-29T04:09:55.826Z,10.59
2018-04-29T04:11:00.082Z,10.63
2018-04-29T04:12:03.468Z,10.66
2018-04-29T04:13:06.845Z,10.69
2018-04-29T04:14:10.265Z,10.75
2018-04-29T04:15:13.603Z,10.81
2018-04-29T04:16:16.955Z,10.86
2018-04-29T04:17:20.263Z,10.85
2018-04-29T04:18:23.606Z,10.84
2018-04-29T04:19:26.936Z,10.96
2018-04-29T04:20:30.349Z,10.96
2018-04-29T04:21:33.755Z,10.97
2018-04-29T04:22:37.105Z,11.01
2018-04-29T04:23:40.442Z,11.05
2018-04-29T04:24:43.833Z,11.00
2018-04-29T04:25:47.190Z,11.13
2018-04-29T04:26:50.564Z,11.14
2018-04-29T04:27:53.961Z,11.15
2018-04-29T04:28:57.331Z,11.16
2018-04-29T04:30:00.663Z,11.16
2018-04-29T04:31:04.080Z,11.17
2018-04-29T04:32:07.479Z,11.20
2018-04-29T04:33:10.833Z,11.25
2018-04-29T04:34:15.019Z,11.27
2018-04-29T04:35:19.085Z,11.30
2018-04-29T04:36:22.423Z,11.32
2018-04-29T04:37:25.728Z,11.33
2018-04-29T04:38:29.843Z,11.36
2018-04-29T04:39:34.104Z,11.33
2018-04-29T04:40:37.599Z,11.34
2018-04-29T04:41:41.713Z,11.33
2018-04-29T04:42:45.178Z,11.30
2018-04-29T04:43:48.529Z,11.32
2018-04-29T04:44:51.895Z,11.34
2018-04-29T04:45:55.203Z,11.32
2018-04-29T04:46:58.527Z,11.35
2018-04-29T04:48:01.979Z,11.40
2018-04-29T04:49:05.317Z,11.39
2018-04-29T04:50:08.729Z,11.46
2018-04-29T04:51:12.085Z,11.48
2018-04-29T04:52:15.437Z,11.48
2018-04-29T04:53:18.799Z,11.62
2018-04-29T04:54:22.153Z,11.66
2018-04-29T04:55:26.391Z,11.68
2018-04-29T04:56:29.713Z,11.71
2018-04-29T04:57:33.101Z,11.75
2018-04-29T04:58:36.430Z,11.79
2018-04-29T04:59:39.806Z,11.86
2018-04-29T05:00:43.175Z,11.92
2018-04-29T05:01:46.531Z,11.96
2018-04-29T05:02:49.872Z,12.00
2018-04-29T05:03:53.241Z,12.05
2018-04-29T05:04:56.751Z,12.05
2018-04-29T05:06:00.093Z,12.10
2018-04-29T05:07:03.413Z,12.16
2018-04-29T05:08:07.002Z,12.29
2018-04-29T05:09:10.321Z,12.30
2018-04-29T05:10:14.849Z,12.30
2018-04-29T05:11:18.816Z,12.39
2018-04-29T05:12:22.489Z,12.36
2018-04-29T05:13:26.591Z,12.42
2018-04-29T05:14:30.136Z,12.39
2018-04-29T05:15:33.480Z,12.42
2018-04-29T05:16:37.211Z,12.41
2018-04-29T05:17:40.605Z,12.43
2018-04-29T05:18:44.010Z,12.49
2018-04-29T05:19:48.172Z,12.52
2018-04-29T05:20:51.777Z,12.44
2018-04-29T05:21:55.143Z,12.53
2018-04-29T05:22:58.443Z,12.55
2018-04-29T05:24:01.805Z,12.53
2018-04-29T05:25:05.119Z,12.61
2018-04-29T05:26:08.477Z,12.61
2018-04-29T05:27:11.827Z,12.65
2018-04-29T05:28:15.175Z,12.68
2018-04-29T05:29:18.506Z,12.68
2018-04-29T05:30:22.619Z,12.71
2018-04-29T05:31:25.982Z,12.66
2018-04-29T05:32:29.314Z,12.70
2018-04-29T05:33:32.649Z,12.75
2018-04-29T05:34:36.056Z,12.75
2018-04-29T05:35:39.380Z,12.74
2018-04-29T05:36:42.761Z,12.75
2018-04-29T05:37:46.231Z,12.77
2018-04-29T05:38:49.571Z,12.77
2018-04-29T05:39:52.948Z,12.72
2018-04-29T05:40:56.307Z,12.59
2018-04-29T05:41:59.632Z,12.55
2018-04-29T05:43:03.041Z,12.43
2018-04-29T05:44:06.398Z,12.47
2018-04-29T05:45:09.728Z,12.39
2018-04-29T05:46:13.066Z,12.30
2018-04-29T05:47:16.400Z,12.25
2018-04-29T05:48:19.883Z,12.14
2018-04-29T05:49:23.216Z,12.14
2018-04-29T05:50:26.562Z,12.19
2018-04-29T05:51:29.918Z,12.07
2018-04-29T05:52:34.083Z,12.21
2018-04-29T05:53:37.670Z,12.12
2018-04-29T05:54:41.062Z,12.11
2018-04-29T05:55:44.378Z,12.28
2018-04-29T05:56:48.524Z,12.42
2018-04-29T05:57:51.853Z,12.55
2018-04-29T05:58:55.303Z,12.55
2018-04-29T05:59:58.641Z,12.66
2018-04-29T06:01:02.719Z,12.72
2018-04-29T06:02:06.082Z,12.84
2018-04-29T06:03:09.418Z,12.93
2018-04-29T06:04:12.815Z,13.00
2018-04-29T06:05:16.917Z,13.19
2018-04-29T06:06:20.359Z,13.23
2018-04-29T06:07:24.386Z,13.34
2018-04-29T06:08:27.706Z,13.43
2018-04-29T06:09:31.101Z,13.51
2018-04-29T06:10:34.412Z,13.61
2018-04-29T06:11:37.755Z,13.69
2018-04-29T06:12:41.197Z,13.73
2018-04-29T06:13:44.549Z,13.70
2018-04-29T06:14:47.893Z,13.69
2018-04-29T06:15:51.980Z,13.70
2018-04-29T06:16:55.290Z,13.69
2018-04-29T06:17:58.623Z,13.59
2018-04-29T06:19:01.960Z,13.49
2018-04-29T06:20:07.736Z,13.53
2018-04-29T06:21:11.058Z,13.52
2018-04-29T06:22:14.366Z,13.51
2018-04-29T06:23:17.726Z,13.55
2018-04-29T06:24:21.093Z,13.56
2018-04-29T06:25:27.461Z,13.58
2018-04-29T06:26:31.662Z,13.61
2018-04-29T06:27:35.120Z,13.66
2018-04-29T06:28:38.493Z,13.66
2018-04-29T06:29:41.941Z,13.75
2018-04-29T06:30:45.277Z,13.71
2018-04-29T06:31:48.662Z,13.77
2018-04-29T06:32:52.032Z,13.88
2018-04-29T06:33:55.371Z,13.90
2018-04-29T06:35:04.425Z,14.02
2018-04-29T06:36:07.981Z,14.20
2018-04-29T06:37:11.372Z,14.27
2018-04-29T06:38:14.674Z,14.33
2018-04-29T06:39:18.759Z,14.43
2018-04-29T06:40:22.086Z,14.40
2018-04-29T06:41:25.461Z,14.36
2018-04-29T06:42:28.818Z,14.41
2018-04-29T06:43:32.629Z,14.42
2018-04-29T06:44:36.737Z,14.36
2018-04-29T06:45:40.056Z,14.33
2018-04-29T06:46:43.407Z,14.34
2018-04-29T06:47:47.476Z,14.36
2018-04-29T06:48:58.258Z,14.34
2018-04-29T06:50:01.571Z,14.33
2018-04-29T06:51:04.931Z,14.31
2018-04-29T06:52:08.300Z,14.30
2018-04-29T06:53:11.609Z,14.30
2018-04-29T06:54:15.688Z,14.28
2018-04-29T06:55:19.039Z,14.29
2018-04-29T06:56:22.376Z,14.29
2018-04-29T06:57:25.685Z,14.22
2018-04-29T06:58:29.081Z,14.23
2018-04-29T06:59:32.500Z,14.22
2018-04-29T07:00:35.793Z,14.19
2018-04-29T07:01:39.201Z,14.11
2018-04-29T07:02:42.610Z,14.01
2018-04-29T07:03:45.916Z,14.01
2018-04-29T07:04:53.166Z,14.05
2018-04-29T07:05:56.544Z,14.00
2018-04-29T07:07:00.635Z,14.04
2018-04-29T07:08:07.142Z,14.00
2018-04-29T07:09:10.781Z,13.90
2018-04-29T07:10:14.264Z,13.84
2018-04-29T07:11:18.392Z,13.88
2018-04-29T07:12:22.452Z,13.88
2018-04-29T07:13:25.835Z,13.82
2018-04-29T07:14:29.166Z,13.89
2018-04-29T07:15:43.037Z,13.81
2018-04-29T07:16:46.369Z,13.73
2018-04-29T07:17:50.430Z,13.64
2018-04-29T07:18:53.799Z,13.63
2018-04-29T07:19:57.281Z,13.71
2018-04-29T07:21:00.455Z,13.73
2018-04-29T07:22:03.791Z,13.76
2018-04-29T07:23:07.140Z,13.68
2018-04-29T07:24:10.632Z,13.71
2018-04-29T07:25:14.627Z,13.74
2018-04-29T07:26:17.932Z,13.75
2018-04-29T07:27:21.282Z,13.74
2018-04-29T07:28:25.402Z,13.77
2018-04-29T07:29:28.832Z,13.88
2018-04-29T07:30:32.191Z,13.94
2018-04-29T07:31:35.600Z,14.02
2018-04-29T07:32:38.946Z,14.07
2018-04-29T07:33:42.266Z,14.21
2018-04-29T07:34:45.611Z,14.37
2018-04-29T07:35:48.960Z,14.51
2018-04-29T07:36:52.322Z,14.53
2018-04-29T07:37:55.782Z,14.59
2018-04-29T07:38:59.159Z,14.65
2018-04-29T07:40:02.495Z,14.54
2018-04-29T07:41:05.846Z,14.63
2018-04-29T07:42:09.977Z,14.68
2018-04-29T07:43:13.314Z,14.81
2018-04-29T07:44:16.684Z,14.88
2018-04-29T07:45:20.196Z,15.02
2018-04-29T07:46:23.631Z,14.86
2018-04-29T07:47:27.857Z,14.87
2018-04-29T07:48:31.174Z,14.95
2018-04-29T07:49:34.496Z,15.03
2018-04-29T07:50:37.895Z,14.98
2018-04-29T07:51:41.981Z,15.11
2018-04-29T07:52:45.279Z,15.27
2018-04-29T07:53:48.595Z,15.12
2018-04-29T07:54:51.932Z,15.07
2018-04-29T07:55:55.272Z,14.97
2018-04-29T07:56:58.684Z,14.88
2018-04-29T07:58:02.003Z,14.60
2018-04-29T07:59:05.338Z,14.42
2018-04-29T08:00:08.695Z,14.41
2018-04-29T08:01:12.213Z,14.44
2018-04-29T08:02:15.573Z,14.58
2018-04-29T08:03:18.951Z,14.63
2018-04-29T08:04:22.273Z,14.46
2018-04-29T08:05:25.574Z,14.55
2018-04-29T08:06:29.017Z,14.23
2018-04-29T08:07:32.380Z,14.42
2018-04-29T08:08:35.740Z,14.55
2018-04-29T08:09:39.086Z,14.60
2018-04-29T08:10:42.434Z,14.52
2018-04-29T08:11:46.014Z,14.50
2018-04-29T08:12:49.473Z,14.46
2018-04-29T08:13:52.848Z,14.33
2018-04-29T08:14:56.205Z,14.25
2018-04-29T08:15:59.577Z,14.36
2018-04-29T08:17:02.924Z,14.41
2018-04-29T08:18:06.263Z,14.55
2018-04-29T08:19:09.592Z,14.66
2018-04-29T08:20:13.725Z,14.52
2018-04-29T08:21:17.146Z,14.49
2018-04-29T08:22:20.482Z,14.65
2018-04-29T08:23:23.911Z,14.82
2018-04-29T08:24:27.396Z,14.62
2018-04-29T08:25:31.570Z,14.68
2018-04-29T08:26:34.916Z,14.75
2018-04-29T08:27:38.266Z,14.71
2018-04-29T08:28:41.632Z,14.74
2018-04-29T08:29:45.018Z,14.65
2018-04-29T08:30:48.337Z,14.77
2018-04-29T08:31:52.607Z,14.97
2018-04-29T08:32:55.956Z,14.81
2018-04-29T08:33:59.287Z,14.76
2018-04-29T08:35:03.376Z,14.99
2018-04-29T08:36:06.782Z,14.58
2018-04-29T08:37:10.989Z,14.61
2018-04-29T08:38:14.478Z,14.50
2018-04-29T08:39:17.878Z,14.51
2018-04-29T08:40:21.301Z,14.51
2018-04-29T08:41:24.730Z,14.57
2018-04-29T08:42:28.355Z,14.37
2018-04-29T08:43:31.871Z,14.64
2018-04-29T08:44:35.261Z,14.54
2018-04-29T08:45:38.581Z,14.41
2018-04-29T08:46:41.911Z,14.26
2018-04-29T08:47:45.320Z,14.27
2018-04-29T08:48:48.675Z,13.80
2018-04-29T08:49:52.061Z,13.60
2018-04-29T08:50:55.396Z,13.65
2018-04-29T08:51:58.723Z,13.59
2018-04-29T08:53:02.065Z,13.47
2018-04-29T08:54:05.414Z,13.36
2018-04-29T08:55:08.807Z,13.32
2018-04-29T08:56:12.260Z,13.29
2018-04-29T08:57:15.619Z,13.54
2018-04-29T08:58:18.927Z,13.58
2018-04-29T08:59:22.319Z,13.46
2018-04-29T09:00:27.133Z,13.50
2018-04-29T09:01:31.360Z,13.49
2018-04-29T09:02:34.816Z,13.59
2018-04-29T09:03:38.234Z,13.69
2018-04-29T09:04:41.524Z,13.60
2018-04-29T09:05:47.095Z,13.70
2018-04-29T09:06:50.422Z,13.60
2018-04-29T09:07:55.104Z,13.51
2018-04-29T09:08:58.463Z,13.66
2018-04-29T09:10:01.841Z,13.67
2018-04-29T09:11:05.262Z,14.04
2018-04-29T09:12:08.583Z,13.98
2018-04-29T09:13:12.067Z,14.02
2018-04-29T09:14:15.382Z,14.21
2018-04-29T09:15:18.923Z,14.33
2018-04-29T09:16:22.369Z,14.11
2018-04-29T09:17:25.777Z,14.08
2018-04-29T09:18:29.248Z,14.24
2018-04-29T09:19:32.573Z,14.24
2018-04-29T09:20:35.933Z,14.27
2018-04-29T09:21:39.243Z,14.03
2018-04-29T09:22:42.555Z,13.78
2018-04-29T09:23:46.641Z,13.80
2018-04-29T09:24:50.070Z,13.87
2018-04-29T09:25:53.480Z,13.88
2018-04-29T09:26:56.953Z,13.98
2018-04-29T09:28:00.302Z,13.96
2018-04-29T09:29:04.530Z,13.88
2018-04-29T09:30:08.042Z,13.97
2018-04-29T09:31:13.280Z,13.89
2018-04-29T09:32:17.209Z,13.98
2018-04-29T09:33:20.665Z,14.44
2018-04-29T09:34:24.054Z,14.44
2018-04-29T09:35:27.444Z,14.45
2018-04-29T09:36:30.942Z,14.42
2018-04-29T09:37:34.284Z,14.50
2018-04-29T09:38:37.857Z,14.66
2018-04-29T09:39:41.189Z,14.81
2018-04-29T09:40:45.327Z,14.91
2018-04-29T09:41:48.704Z,15.19
2018-04-29T09:42:54.287Z,14.95
2018-04-29T09:43:57.611Z,15.03
2018-04-29T09:45:01.004Z,15.04
2018-04-29T09:46:05.041Z,15.17
2018-04-29T09:47:08.411Z,15.16
2018-04-29T09:48:11.922Z,15.29
2018-04-29T09:49:15.281Z,15.46
2018-04-29T09:50:18.643Z,15.28
2018-04-29T09:51:22.035Z,15.51
2018-04-29T09:52:25.361Z,15.73
2018-04-29T09:53:28.703Z,15.84
2018-04-29T09:54:32.015Z,15.85
2018-04-29T09:55:36.107Z,15.67
2018-04-29T09:56:39.796Z,15.87
2018-04-29T09:57:43.374Z,15.97
2018-04-29T09:58:46.717Z,16.18
2018-04-29T09:59:50.086Z,16.06
2018-04-29T10:00:57.446Z,16.23
2018-04-29T10:02:02.536Z,16.22
2018-04-29T10:03:07.886Z,16.28
2018-04-29T10:04:11.357Z,16.45
2018-04-29T10:05:14.761Z,16.59
2018-04-29T10:06:18.929Z,16.74
2018-04-29T10:07:22.404Z,17.28
2018-04-29T10:08:26.556Z,17.35
2018-04-29T10:09:29.897Z,17.38
2018-04-29T10:10:33.314Z,17.61
2018-04-29T10:11:37.147Z,17.40
2018-04-29T10:12:40.537Z,17.37
2018-04-29T10:13:43.944Z,17.31
2018-04-29T10:14:47.428Z,17.18
2018-04-29T10:15:51.042Z,17.08
2018-04-29T10:16:54.372Z,17.39
2018-04-29T10:17:57.760Z,17.37
2018-04-29T10:19:01.198Z,17.36
2018-04-29T10:20:04.582Z,17.11
2018-04-29T10:21:08.039Z,17.06
2018-04-29T10:22:11.824Z,17.00
2018-04-29T10:23:15.713Z,16.97
2018-04-29T10:24:20.269Z,16.97
2018-04-29T10:25:23.700Z,17.13
2018-04-29T10:26:27.436Z,17.33
2018-04-29T10:27:31.454Z,17.32
2018-04-29T10:28:34.810Z,17.51
2018-04-29T10:29:39.054Z,17.52
2018-04-29T10:30:42.517Z,17.70
2018-04-29T10:31:46.203Z,17.70
2018-04-29T10:32:49.891Z,17.69
2018-04-29T10:33:54.072Z,17.75
2018-04-29T10:34:57.908Z,17.99
2018-04-29T10:36:01.792Z,18.30
2018-04-29T10:37:05.344Z,18.54
2018-04-29T10:38:08.751Z,18.78
2018-04-29T10:39:12.334Z,19.16
2018-04-29T10:40:15.881Z,19.38
2018-04-29T10:41:19.386Z,19.44
2018-04-29T10:42:22.768Z,19.35
2018-04-29T10:43:26.498Z,19.12
2018-04-29T10:44:30.089Z,19.10
2018-04-29T10:45:33.913Z,18.86
2018-04-29T10:46:38.362Z,18.53
2018-04-29T10:47:42.571Z,18.55
2018-04-29T10:48:46.724Z,18.30
2018-04-29T10:50:00.592Z,18.32
2018-04-29T10:53:14.900Z,18.68
2018-04-29T11:06:53.040Z,19.44
2018-04-29T11:07:57.129Z,19.61
2018-04-29T11:09:00.482Z,19.61
2018-04-29T11:10:03.852Z,19.64
2018-04-29T11:11:07.213Z,19.76
2018-04-29T11:12:10.561Z,19.81
2018-04-29T11:17:07.061Z,20.35
2018-04-29T11:18:10.856Z,20.43
2018-04-29T11:19:14.490Z,20.40
2018-04-29T11:20:17.885Z,20.46
2018-04-29T11:21:21.273Z,20.57
2018-04-29T11:22:24.767Z,20.72
2018-04-29T11:23:29.069Z,20.66
2018-04-29T11:24:32.451Z,20.79
2018-04-29T11:25:44.388Z,20.81
2018-04-29T11:26:47.784Z,21.06
2018-04-29T11:27:51.108Z,21.17
2018-04-29T11:28:54.697Z,21.26
2018-04-29T11:30:00.402Z,21.37
2018-04-29T11:31:04.666Z,21.18
2018-04-29T11:32:08.353Z,21.27
2018-04-29T11:33:11.844Z,21.40
2018-04-29T11:34:15.313Z,21.37
2018-04-29T11:35:19.164Z,21.44
2018-04-29T11:36:22.813Z,21.44
2018-04-29T11:37:26.452Z,21.44
2018-04-29T11:38:30.073Z,21.38
2018-04-29T11:40:40.709Z,21.28
2018-04-29T11:41:44.981Z,21.36
2018-04-29T11:42:48.594Z,21.40
2018-04-29T11:43:52.576Z,21.49
2018-04-29T11:44:56.091Z,21.58
2018-04-29T11:45:59.624Z,21.55
2018-04-29T11:47:03.193Z,21.50
2018-04-29T11:48:07.135Z,21.63
2018-04-29T11:49:12.092Z,21.62
2018-04-29T11:50:16.596Z,21.68
2018-04-29T11:51:20.329Z,21.79
2018-04-29T11:52:23.759Z,21.85
2018-04-29T11:53:31.010Z,21.27
2018-04-29T11:54:35.603Z,21.68
2018-04-29T11:55:39.595Z,21.71
2018-04-29T11:56:43.394Z,21.51
2018-04-29T11:57:47.623Z,21.61
2018-04-29T11:58:51.043Z,21.74
2018-04-29T11:59:54.388Z,22.03
2018-04-29T12:00:57.742Z,21.94
2018-04-29T12:02:01.111Z,21.87
2018-04-29T12:03:04.559Z,21.81
2018-04-29T12:04:08.696Z,21.80
2018-04-29T12:05:12.081Z,21.82
2018-04-29T12:06:15.384Z,21.76
2018-04-29T12:07:18.754Z,21.38
2018-04-29T12:08:22.053Z,21.43
2018-04-29T12:09:25.494Z,21.54
2018-04-29T12:10:29.165Z,21.36
2018-04-29T12:11:33.347Z,21.38
2018-04-29T12:12:36.843Z,21.49
2018-04-29T12:13:40.201Z,21.59
2018-04-29T12:14:43.715Z,21.54
2018-04-29T12:15:47.068Z,21.61
2018-04-29T12:16:50.428Z,21.77
2018-04-29T12:17:53.785Z,21.76
2018-04-29T12:18:57.139Z,21.67
2018-04-29T12:20:00.544Z,21.95
2018-04-29T12:21:03.944Z,21.74
2018-04-29T12:22:07.421Z,21.43
2018-04-29T12:23:10.789Z,21.51
2018-04-29T12:24:14.190Z,21.74
2018-04-29T12:25:17.570Z,22.08
2018-04-29T12:26:20.996Z,22.18
2018-04-29T12:27:24.338Z,22.48
2018-04-29T12:28:27.918Z,22.47
2018-04-29T12:29:31.333Z,22.40
2018-04-29T12:30:34.660Z,22.29
2018-04-29T12:31:38.018Z,22.47
2018-04-29T12:32:41.340Z,22.85
2018-04-29T12:33:44.988Z,22.66
2018-04-29T12:34:48.407Z,22.80
2018-04-29T12:35:52.159Z,22.92
2018-04-29T12:36:56.461Z,23.14
2018-04-29T12:38:00.791Z,22.95
2018-04-29T12:39:04.164Z,23.03
2018-04-29T12:40:07.699Z,23.29
2018-04-29T12:41:11.037Z,23.16
2018-04-29T12:42:14.413Z,23.37
2018-04-29T12:43:17.729Z,23.51
2018-04-29T12:44:21.871Z,23.32
2018-04-29T12:45:25.261Z,23.38
2018-04-29T12:46:29.536Z,23.47
2018-04-29T12:47:33.701Z,23.21
2018-04-29T12:48:37.155Z,23.45
2018-04-29T12:49:40.565Z,23.35
2018-04-29T12:50:43.913Z,23.33
2018-04-29T12:51:47.259Z,23.38
2018-04-29T12:52:50.745Z,23.45
2018-04-29T12:53:54.088Z,23.40
2018-04-29T12:54:57.486Z,23.31
2018-04-29T12:56:00.916Z,23.17
2018-04-29T12:57:05.227Z,23.35
2018-04-29T12:58:08.919Z,23.43
2018-04-29T12:59:13.025Z,23.24
2018-04-29T13:00:16.364Z,23.46
2018-04-29T13:01:19.779Z,23.23
2018-04-29T13:02:23.120Z,23.08
2018-04-29T13:03:26.700Z,23.22
2018-04-29T13:04:30.103Z,23.31
2018-04-29T13:05:33.519Z,23.16
2018-04-29T13:06:36.798Z,23.22
2018-04-29T13:07:40.131Z,23.19
2018-04-29T13:08:43.587Z,23.06
2018-04-29T13:09:47.036Z,22.93
2018-04-29T13:10:50.390Z,22.95
2018-04-29T13:11:54.318Z,23.13
2018-04-29T13:13:03.540Z,23.31
2018-04-29T13:14:07.777Z,23.23
2018-04-29T13:15:11.244Z,23.32
2018-04-29T13:16:14.720Z,23.27
2018-04-29T13:17:18.704Z,23.39
2018-04-29T13:18:22.147Z,23.27
2018-04-29T13:19:25.621Z,23.25
2018-04-29T13:20:29.196Z,23.46
2018-04-29T13:21:32.642Z,23.31
2018-04-29T13:22:36.209Z,23.24
2018-04-29T13:23:39.752Z,23.34
2018-04-29T13:24:43.114Z,23.37
2018-04-29T13:25:46.590Z,23.47
2018-04-29T13:26:50.047Z,23.42
2018-04-29T13:27:54.765Z,23.40
2018-04-29T13:28:58.141Z,23.32
2018-04-29T13:30:01.549Z,23.31
2018-04-29T13:31:15.488Z,23.22
2018-04-29T13:32:18.987Z,23.36
2018-04-29T13:33:22.341Z,23.49
2018-04-29T13:34:25.786Z,23.39
2018-04-29T13:35:29.163Z,23.37
2018-04-29T13:36:32.539Z,23.46
2018-04-29T13:37:36.752Z,23.49
2018-04-29T13:38:40.200Z,23.42
2018-04-29T13:39:43.574Z,23.30
2018-04-29T13:40:46.965Z,23.63
2018-04-29T13:41:50.345Z,23.54
2018-04-29T13:42:53.843Z,23.70
2018-04-29T13:43:57.776Z,23.74
2018-04-29T13:45:01.659Z,23.59
2018-04-29T13:46:04.996Z,23.62
2018-04-29T13:47:08.358Z,23.55
2018-04-29T13:48:11.747Z,23.71
2018-04-29T13:49:15.099Z,23.85
2018-04-29T13:50:18.545Z,23.88
2018-04-29T13:51:21.967Z,24.01
2018-04-29T13:52:25.274Z,24.13
2018-04-29T13:53:28.850Z,24.09
2018-04-29T13:54:32.264Z,24.13
2018-04-29T13:55:36.384Z,24.19
2018-04-29T13:56:39.815Z,24.25
2018-04-29T13:57:43.111Z,24.54
2018-04-29T13:58:46.554Z,24.48
2018-04-29T13:59:49.830Z,24.60
2018-04-29T14:00:53.237Z,24.47